createdAt,value
2023-03-22T00:00:24.593Z,10.02
2023-03-22T00:01:24.552Z,10.01
2023-03-22T00:02:24.565Z,10.02
2023-03-22T00:03:24.642Z,10.05
2023-03-22T00:04:24.557Z,10.04
2023-03-22T00:05:24.522Z,10.02
2023-03-22T00:06:24.486Z,10.02
2023-03-22T00:07:24.480Z,10.04
2023-03-22T00:08:24.464Z,10.02
2023-03-22T00:09:24.434Z,10.02
2023-03-22T00:10:24.450Z,9.99
2023-03-22T00:11:24.415Z,9.97
2023-03-22T00:12:24.414Z,9.97
2023-03-22T00:13:24.402Z,9.95
2023-03-22T00:14:24.409Z,9.92
2023-03-22T00:15:24.357Z,9.92
2023-03-22T00:16:24.482Z,9.92
2023-03-22T00:17:24.338Z,9.91
2023-03-22T00:18:24.359Z,9.91
2023-03-22T00:19:24.296Z,9.89
2023-03-22T00:20:24.299Z,9.89
2023-03-22T00:21:24.357Z,9.87
2023-03-22T00:22:24.262Z,9.83
2023-03-22T00:23:24.292Z,9.80
2023-03-22T00:24:24.269Z,9.79
2023-03-22T00:25:24.219Z,9.79
2023-03-22T00:26:24.240Z,9.77
2023-03-22T00:27:24.207Z,9.77
2023-03-22T00:28:24.192Z,9.74
2023-03-22T00:29:24.177Z,9.74
2023-03-22T00:30:24.164Z,9.74
2023-03-22T00:31:24.242Z,9.76
2023-03-22T00:32:24.161Z,9.76
2023-03-22T00:33:24.124Z,9.74
2023-03-22T00:34:24.111Z,9.73
2023-03-22T00:35:24.147Z,9.69
2023-03-22T00:36:24.080Z,9.66
2023-03-22T00:37:24.093Z,9.65
2023-03-22T00:38:35.929Z,9.64
2023-03-22T00:39:24.121Z,9.62
2023-03-22T00:40:24.095Z,9.61
2023-03-22T00:41:24.008Z,9.59
2023-03-22T00:42:24.016Z,9.59
2023-03-22T00:43:23.989Z,9.61
2023-03-22T00:44:24.011Z,9.62
2023-03-22T00:45:23.965Z,9.61
2023-03-22T00:46:23.988Z,9.56
2023-03-22T00:47:23.968Z,9.56
2023-03-22T00:48:23.985Z,9.55
2023-03-22T00:49:23.898Z,9.54
2023-03-22T00:50:23.882Z,9.51
2023-03-22T00:51:23.869Z,9.50
2023-03-22T00:52:23.864Z,9.48
2023-03-22T00:53:23.872Z,9.44
2023-03-22T00:54:23.850Z,9.46
2023-03-22T00:55:23.848Z,9.43
2023-03-22T00:56:23.806Z,9.43
2023-03-22T00:57:23.794Z,9.43
2023-03-22T00:58:23.785Z,9.40
2023-03-22T00:59:23.847Z,9.37
2023-03-22T01:00:23.753Z,9.34
2023-03-22T01:01:23.764Z,9.32
2023-03-22T01:02:23.737Z,9.31
2023-03-22T01:03:23.726Z,9.31
2023-03-22T01:04:23.718Z,9.25
2023-03-22T01:05:23.695Z,9.22
2023-03-22T01:06:23.679Z,9.14
2023-03-22T01:07:23.658Z,9.11
2023-03-22T01:08:23.669Z,9.13
2023-03-22T01:09:23.662Z,9.11
2023-03-22T01:10:23.610Z,9.10
2023-03-22T01:11:23.606Z,9.08
2023-03-22T01:12:23.599Z,9.08
2023-03-22T01:13:23.582Z,9.02
2023-03-22T01:14:23.671Z,8.97
2023-03-22T01:15:23.546Z,8.95
2023-03-22T01:16:23.578Z,8.95
2023-03-22T01:17:23.526Z,8.95
2023-03-22T01:18:23.491Z,8.94
2023-03-22T01:19:23.537Z,8.92
2023-03-22T01:20:23.505Z,8.91
2023-03-22T01:21:23.455Z,8.88
2023-03-22T01:22:23.488Z,8.88
2023-03-22T01:23:23.439Z,8.85
2023-03-22T01:24:23.412Z,8.85
2023-03-22T01:25:23.433Z,8.85
2023-03-22T01:26:23.407Z,8.82
2023-03-22T01:27:23.404Z,8.78
2023-03-22T01:28:26.468Z,8.74
2023-03-22T01:29:23.359Z,8.71
2023-03-22T01:30:23.341Z,8.69
2023-03-22T01:31:23.478Z,8.64
2023-03-22T01:32:23.331Z,8.66
2023-03-22T01:33:23.329Z,8.66
2023-03-22T01:34:23.287Z,8.64
2023-03-22T01:35:23.403Z,8.61
2023-03-22T01:36:23.270Z,8.63
2023-03-22T01:37:23.242Z,8.61
2023-03-22T01:38:23.271Z,8.60
2023-03-22T01:39:23.232Z,8.60
2023-03-22T01:40:23.208Z,8.60
2023-03-22T01:41:23.189Z,8.58
2023-03-22T01:42:23.167Z,8.61
2023-03-22T01:43:23.174Z,8.61
2023-03-22T01:44:23.155Z,8.61
2023-03-22T01:45:23.135Z,8.64
2023-03-22T01:46:23.115Z,8.66
2023-03-22T01:47:23.101Z,8.63
2023-03-22T01:48:23.163Z,8.64
2023-03-22T01:49:23.149Z,8.61
2023-03-22T01:50:23.057Z,8.61
2023-03-22T01:51:23.065Z,8.61
2023-03-22T01:52:23.043Z,8.61
2023-03-22T01:53:23.047Z,8.60
2023-03-22T01:54:23.017Z,8.61
2023-03-22T01:55:22.996Z,8.60
2023-03-22T01:56:22.982Z,8.60
2023-03-22T01:57:22.967Z,8.60
2023-03-22T01:58:22.990Z,8.60
2023-03-22T01:59:22.934Z,8.58
2023-03-22T02:00:22.963Z,8.56
2023-03-22T02:01:22.966Z,8.60
2023-03-22T02:02:22.943Z,8.61
2023-03-22T02:03:22.892Z,8.56
2023-03-22T02:04:22.892Z,8.55
2023-03-22T02:05:22.859Z,8.53
2023-03-22T02:06:22.878Z,8.49
2023-03-22T02:07:22.830Z,8.48
2023-03-22T02:08:22.829Z,8.44
2023-03-22T02:09:22.819Z,8.42
2023-03-22T02:10:22.802Z,8.42
2023-03-22T02:11:22.805Z,8.42
2023-03-22T02:12:22.755Z,8.42
2023-03-22T02:13:22.752Z,8.44
2023-03-22T02:14:23.514Z,8.44
2023-03-22T02:15:22.738Z,8.44
2023-03-22T02:16:22.731Z,8.45
2023-03-22T02:17:22.696Z,8.45
2023-03-22T02:18:22.692Z,8.45
2023-03-22T02:19:22.709Z,8.45
2023-03-22T02:20:22.657Z,8.45
2023-03-22T02:21:22.662Z,8.46
2023-03-22T02:22:22.633Z,8.48
2023-03-22T02:23:22.635Z,8.46
2023-03-22T02:24:22.594Z,8.46
2023-03-22T02:25:22.595Z,8.48
2023-03-22T02:26:22.579Z,8.49
2023-03-22T02:27:22.571Z,8.46
2023-03-22T02:28:22.582Z,8.46
2023-03-22T02:29:22.532Z,8.48
2023-03-22T02:30:22.518Z,8.46
2023-03-22T02:31:22.600Z,8.45
2023-03-22T02:32:22.482Z,8.45
2023-03-22T02:33:22.483Z,8.45
2023-03-22T02:34:22.460Z,8.44
2023-03-22T02:35:22.477Z,8.45
2023-03-22T02:36:22.476Z,8.46
2023-03-22T02:37:22.433Z,8.45
2023-03-22T02:38:22.411Z,8.45
2023-03-22T02:39:22.412Z,8.41
2023-03-22T02:40:22.370Z,8.36
2023-03-22T02:41:22.367Z,8.36
2023-03-22T02:42:22.369Z,8.33
2023-03-22T02:43:22.338Z,8.34
2023-03-22T02:44:22.357Z,8.34
2023-03-22T02:45:22.329Z,8.33
2023-03-22T02:46:22.301Z,8.31
2023-03-22T02:47:22.290Z,8.31
2023-03-22T02:48:22.333Z,8.28
2023-03-22T02:49:22.268Z,8.31
2023-03-22T02:50:22.226Z,8.28
2023-03-22T02:51:22.228Z,8.30
2023-03-22T02:52:22.211Z,8.30
2023-03-22T02:53:22.244Z,8.30
2023-03-22T02:54:22.187Z,8.30
2023-03-22T02:55:22.198Z,8.30
2023-03-22T02:56:22.153Z,8.30
2023-03-22T02:57:22.171Z,8.30
2023-03-22T02:58:22.137Z,8.30
2023-03-22T02:59:22.149Z,8.31
2023-03-22T03:00:22.140Z,8.33
2023-03-22T03:01:22.202Z,8.34
2023-03-22T03:02:22.102Z,8.34
2023-03-22T03:03:22.056Z,8.36
2023-03-22T03:04:22.090Z,8.37
2023-03-22T03:05:22.041Z,8.37
2023-03-22T03:06:22.018Z,8.37
2023-03-22T03:07:22.024Z,8.37
2023-03-22T03:08:22.021Z,8.36
2023-03-22T03:09:22.016Z,8.37
2023-03-22T03:10:21.966Z,8.37
2023-03-22T03:11:21.949Z,8.37
2023-03-22T03:12:21.943Z,8.37
2023-03-22T03:13:21.924Z,8.41
2023-03-22T03:14:21.930Z,8.38
2023-03-22T03:15:21.948Z,8.41
2023-03-22T03:16:21.942Z,8.37
2023-03-22T03:17:21.870Z,8.38
2023-03-22T03:18:21.856Z,8.38
2023-03-22T03:19:21.843Z,8.36
2023-03-22T03:20:21.853Z,8.34
2023-03-22T03:21:21.816Z,8.28
2023-03-22T03:22:21.816Z,8.27
2023-03-22T03:23:21.799Z,8.24
2023-03-22T03:24:21.775Z,8.19
2023-03-22T03:25:21.769Z,8.19
2023-03-22T03:26:21.778Z,8.18
2023-03-22T03:27:21.729Z,8.18
2023-03-22T03:28:21.724Z,8.20
2023-03-22T03:29:21.759Z,8.20
2023-03-22T03:30:21.726Z,8.23
2023-03-22T03:31:21.736Z,8.20
2023-03-22T03:32:21.663Z,8.24
2023-03-22T03:33:21.665Z,8.24
2023-03-22T03:34:21.650Z,8.23
2023-03-22T03:35:21.727Z,8.23
2023-03-22T03:36:21.613Z,8.18
2023-03-22T03:37:21.658Z,8.19
2023-03-22T03:38:21.587Z,8.19
2023-03-22T03:39:21.584Z,8.19
2023-03-22T03:40:21.595Z,8.19
2023-03-22T03:41:21.548Z,8.20
2023-03-22T03:42:21.532Z,8.19
2023-03-22T03:43:21.526Z,8.18
2023-03-22T03:44:21.563Z,8.16
2023-03-22T03:45:21.514Z,8.15
2023-03-22T03:46:21.475Z,8.13
2023-03-22T03:47:21.471Z,8.13
2023-03-22T03:48:21.566Z,8.10
2023-03-22T03:49:21.435Z,8.09
2023-03-22T03:50:21.431Z,8.03
2023-03-22T03:51:21.440Z,8.03
2023-03-22T03:52:21.422Z,8.01
2023-03-22T03:53:21.388Z,8.00
2023-03-22T03:54:21.369Z,7.94
2023-03-22T03:55:21.356Z,7.93
2023-03-22T03:56:21.396Z,7.94
2023-03-22T03:57:21.369Z,7.94
2023-03-22T03:58:21.317Z,7.91
2023-03-22T03:59:21.325Z,7.93
2023-03-22T04:00:21.298Z,7.94
2023-03-22T04:01:21.284Z,7.94
2023-03-22T04:02:21.314Z,7.93
2023-03-22T04:03:21.258Z,7.90
2023-03-22T04:04:21.251Z,7.88
2023-03-22T04:05:21.252Z,7.88
2023-03-22T04:06:21.207Z,7.83
2023-03-22T04:07:21.197Z,7.79
2023-03-22T04:08:21.179Z,7.73
2023-03-22T04:09:21.161Z,7.69
2023-03-22T04:10:21.182Z,7.66
2023-03-22T04:11:21.136Z,7.60
2023-03-22T04:12:21.326Z,7.57
2023-03-22T04:13:21.116Z,7.56
2023-03-22T04:14:21.127Z,7.56
2023-03-22T04:15:21.090Z,7.54
2023-03-22T04:16:21.118Z,7.51
2023-03-22T04:17:21.058Z,7.48
2023-03-22T04:18:21.039Z,7.47
2023-03-22T04:19:21.055Z,7.43
2023-03-22T04:20:21.036Z,7.40
2023-03-22T04:21:21.030Z,7.42
2023-03-22T04:22:21.019Z,7.42
2023-03-22T04:23:20.977Z,7.42
2023-03-22T04:24:21.001Z,7.42
2023-03-22T04:25:20.946Z,7.39
2023-03-22T04:26:20.940Z,7.35
2023-03-22T04:27:20.940Z,7.33
2023-03-22T04:28:20.941Z,7.32
2023-03-22T04:29:20.894Z,7.33
2023-03-22T04:30:20.934Z,7.33
2023-03-22T04:31:20.957Z,7.33
2023-03-22T04:32:20.853Z,7.35
2023-03-22T04:33:20.872Z,7.35
2023-03-22T04:34:20.826Z,7.35
2023-03-22T04:35:51.052Z,7.35
2023-03-22T04:36:20.814Z,7.35
2023-03-22T04:37:20.818Z,7.32
2023-03-22T04:38:20.814Z,7.25
2023-03-22T04:39:20.760Z,7.21
2023-03-22T04:40:20.772Z,7.17
2023-03-22T04:41:20.746Z,7.11
2023-03-22T04:42:20.745Z,7.07
2023-03-22T04:43:20.716Z,7.07
2023-03-22T04:44:20.728Z,7.05
2023-03-22T04:45:20.667Z,7.06
2023-03-22T04:46:20.800Z,7.06
2023-03-22T04:47:20.644Z,7.06
2023-03-22T04:48:20.781Z,7.07
2023-03-22T04:49:20.669Z,7.10
2023-03-22T04:50:20.658Z,7.03
2023-03-22T04:51:20.628Z,7.06
2023-03-22T04:52:20.579Z,7.02
2023-03-22T04:53:20.588Z,7.00
2023-03-22T04:54:20.556Z,7.02
2023-03-22T04:55:20.549Z,6.99
2023-03-22T04:56:20.562Z,6.99
2023-03-22T04:57:20.548Z,6.96
2023-03-22T04:58:20.507Z,6.95
2023-03-22T04:59:20.524Z,6.93
2023-03-22T05:00:20.476Z,6.93
2023-03-22T05:01:20.503Z,6.92
2023-03-22T05:02:20.506Z,6.89
2023-03-22T05:03:20.437Z,6.87
2023-03-22T05:04:20.430Z,6.87
2023-03-22T05:05:20.417Z,6.84
2023-03-22T05:06:20.397Z,6.82
2023-03-22T05:07:20.433Z,6.81
2023-03-22T05:08:20.368Z,6.79
2023-03-22T05:09:23.212Z,6.77
2023-03-22T05:10:20.372Z,6.75
2023-03-22T05:11:20.409Z,6.74
2023-03-22T05:12:20.313Z,6.72
2023-03-22T05:13:20.313Z,6.72
2023-03-22T05:14:20.387Z,6.67
2023-03-22T05:15:20.303Z,6.66
2023-03-22T05:16:20.344Z,6.63
2023-03-22T05:17:20.253Z,6.62
2023-03-22T05:18:20.236Z,6.62
2023-03-22T05:19:20.252Z,6.62
2023-03-22T05:20:20.226Z,6.60
2023-03-22T05:21:20.215Z,6.62
2023-03-22T05:22:20.212Z,6.62
2023-03-22T05:23:20.200Z,6.63
2023-03-22T05:24:20.163Z,6.64
2023-03-22T05:25:20.148Z,6.64
2023-03-22T05:26:20.129Z,6.63
2023-03-22T05:27:20.112Z,6.63
2023-03-22T05:28:20.128Z,6.63
2023-03-22T05:29:20.094Z,6.57
2023-03-22T05:30:20.095Z,6.56
2023-03-22T05:31:20.146Z,6.54
2023-03-22T05:32:20.082Z,6.49
2023-03-22T05:33:20.045Z,6.44
2023-03-22T05:34:20.013Z,6.41
2023-03-22T05:35:20.070Z,6.39
2023-03-22T05:36:20.032Z,6.39
2023-03-22T05:37:19.982Z,6.39
2023-03-22T05:38:19.978Z,6.38
2023-03-22T05:39:19.982Z,6.39
2023-03-22T05:40:19.970Z,6.41
2023-03-22T05:41:19.964Z,6.42
2023-03-22T05:42:19.920Z,6.44
2023-03-22T05:43:19.953Z,6.45
2023-03-22T05:44:19.895Z,6.48
2023-03-22T05:45:19.904Z,6.51
2023-03-22T05:46:20.054Z,6.54
2023-03-22T05:47:19.861Z,6.56
2023-03-22T05:48:19.878Z,6.59
2023-03-22T05:49:19.874Z,6.57
2023-03-22T05:50:19.874Z,6.60
2023-03-22T05:51:19.826Z,6.60
2023-03-22T05:52:19.814Z,6.63
2023-03-22T05:53:19.799Z,6.67
2023-03-22T05:54:19.771Z,6.69
2023-03-22T05:55:19.751Z,6.74
2023-03-22T05:56:19.741Z,6.77
2023-03-22T05:57:19.775Z,6.79
2023-03-22T05:58:19.706Z,6.82
2023-03-22T05:59:19.695Z,6.85
2023-03-22T06:00:19.682Z,6.88
2023-03-22T06:01:19.699Z,6.89
2023-03-22T06:02:19.742Z,6.93
2023-03-22T06:03:19.720Z,6.96
2023-03-22T06:04:19.638Z,6.99
2023-03-22T06:05:19.620Z,7.00
2023-03-22T06:06:19.602Z,7.03
2023-03-22T06:07:19.601Z,7.03
2023-03-22T06:08:19.570Z,7.10
2023-03-22T06:09:19.572Z,7.14
2023-03-22T06:10:19.552Z,7.17
2023-03-22T06:11:19.548Z,7.18
2023-03-22T06:12:19.532Z,7.21
2023-03-22T06:13:19.594Z,7.23
2023-03-22T06:14:19.509Z,7.24
2023-03-22T06:15:19.482Z,7.25
2023-03-22T06:16:19.513Z,7.28
2023-03-22T06:17:19.460Z,7.28
2023-03-22T06:18:19.445Z,7.32
2023-03-22T06:19:19.464Z,7.35
2023-03-22T06:20:19.416Z,7.38
2023-03-22T06:21:19.506Z,7.43
2023-03-22T06:22:19.424Z,7.43
2023-03-22T06:23:19.380Z,7.47
2023-03-22T06:24:19.367Z,7.51
2023-03-22T06:25:19.357Z,7.53
2023-03-22T06:26:19.336Z,7.56
2023-03-22T06:27:19.327Z,7.58
2023-03-22T06:28:19.338Z,7.60
2023-03-22T06:29:19.312Z,7.63
2023-03-22T06:30:19.293Z,7.67
2023-03-22T06:31:19.422Z,7.67
2023-03-22T06:32:19.243Z,7.70
2023-03-22T06:33:19.311Z,7.72
2023-03-22T06:34:19.237Z,7.72
2023-03-22T06:35:19.251Z,7.75
2023-03-22T06:36:19.196Z,7.76
2023-03-22T06:37:19.177Z,7.76
2023-03-22T06:38:19.189Z,7.77
2023-03-22T06:39:19.159Z,7.76
2023-03-22T06:40:19.136Z,7.76
2023-03-22T06:41:19.146Z,7.79
2023-03-22T06:42:19.114Z,7.75
2023-03-22T06:43:19.109Z,7.77
2023-03-22T06:44:19.074Z,7.79
2023-03-22T06:45:19.084Z,7.82
2023-03-22T06:46:19.108Z,7.85
2023-03-22T06:47:19.040Z,7.91
2023-03-22T06:48:19.143Z,7.97
2023-03-22T06:49:19.079Z,8.03
2023-03-22T06:50:19.009Z,8.05
2023-03-22T06:51:19.021Z,8.09
2023-03-22T06:52:18.965Z,8.13
2023-03-22T06:53:18.957Z,8.18
2023-03-22T06:54:18.939Z,8.24
2023-03-22T06:55:18.975Z,8.69
2023-03-22T06:56:18.960Z,9.28
2023-03-22T06:57:18.908Z,10.07
2023-03-22T06:58:18.937Z,10.76
2023-03-22T06:59:18.883Z,11.44
2023-03-22T07:00:18.862Z,12.07
2023-03-22T07:01:18.889Z,12.39
2023-03-22T07:02:19.024Z,12.49
2023-03-22T07:03:18.845Z,12.61
2023-03-22T07:04:18.846Z,12.70
2023-03-22T07:05:18.803Z,13.04
2023-03-22T07:06:18.812Z,13.33
2023-03-22T07:07:18.803Z,13.47
2023-03-22T07:08:18.855Z,13.63
2023-03-22T07:09:18.737Z,13.92
2023-03-22T07:10:18.724Z,14.28
2023-03-22T07:11:18.746Z,14.55
2023-03-22T07:12:18.728Z,14.59
2023-03-22T07:13:18.716Z,14.55
2023-03-22T07:14:18.677Z,14.37
2023-03-22T07:15:18.664Z,14.33
2023-03-22T07:16:19.997Z,14.08
2023-03-22T07:17:18.659Z,13.78
2023-03-22T07:18:18.641Z,13.47
2023-03-22T07:19:18.601Z,13.15
2023-03-22T07:20:18.585Z,12.86
2023-03-22T07:21:18.602Z,12.64
2023-03-22T07:22:18.629Z,12.40
2023-03-22T07:23:18.572Z,12.29
2023-03-22T07:24:18.543Z,12.13
2023-03-22T07:25:18.724Z,12.02
2023-03-22T07:26:18.514Z,11.91
2023-03-22T07:27:18.521Z,11.87
2023-03-22T07:28:18.500Z,11.80
2023-03-22T07:29:18.462Z,11.78
2023-03-22T07:30:18.490Z,11.78
2023-03-22T07:31:18.448Z,11.83
2023-03-22T07:32:18.480Z,11.90
2023-03-22T07:33:18.445Z,11.97
2023-03-22T07:34:18.405Z,12.00
2023-03-22T07:35:18.436Z,12.04
2023-03-22T07:36:18.406Z,12.04
2023-03-22T07:37:18.393Z,12.00
2023-03-22T07:38:18.359Z,11.99
2023-03-22T07:39:18.333Z,11.99
2023-03-22T07:40:18.337Z,11.95
2023-03-22T07:41:18.308Z,11.87
2023-03-22T07:42:18.407Z,11.84
2023-03-22T07:43:18.284Z,11.86
2023-03-22T07:44:18.614Z,11.83
2023-03-22T07:45:18.480Z,11.73
2023-03-22T07:46:18.325Z,11.75
2023-03-22T07:47:27.155Z,11.75
2023-03-22T07:48:18.395Z,11.77
2023-03-22T07:49:18.199Z,11.72
2023-03-22T07:50:18.215Z,11.69
2023-03-22T07:51:18.212Z,11.66
2023-03-22T07:52:18.182Z,11.69
2023-03-22T07:53:18.189Z,11.65
2023-03-22T07:54:32.503Z,11.66
2023-03-22T07:55:18.174Z,11.68
2023-03-22T07:56:18.105Z,11.72
2023-03-22T07:57:18.102Z,11.80
2023-03-22T07:58:18.091Z,11.87
2023-03-22T07:59:18.173Z,11.94
2023-03-22T08:00:18.089Z,12.00
2023-03-22T08:01:18.051Z,12.06
2023-03-22T08:02:18.130Z,12.12
2023-03-22T08:03:18.109Z,12.15
2023-03-22T08:04:18.003Z,12.18
2023-03-22T08:05:18.029Z,12.20
2023-03-22T08:06:18.006Z,12.22
2023-03-22T08:07:18.045Z,12.29
2023-03-22T08:08:17.946Z,12.37
2023-03-22T08:09:17.968Z,12.43
2023-03-22T08:10:17.932Z,12.54
2023-03-22T08:11:17.910Z,12.60
2023-03-22T08:12:17.913Z,12.67
2023-03-22T08:13:17.895Z,12.75
2023-03-22T08:14:22.207Z,12.78
2023-03-22T08:15:17.885Z,12.82
2023-03-22T08:16:17.920Z,12.87
2023-03-22T08:17:17.823Z,12.93
2023-03-22T08:18:17.847Z,12.98
2023-03-22T08:19:17.811Z,13.03
2023-03-22T08:20:17.829Z,13.11
2023-03-22T08:21:17.802Z,13.18
2023-03-22T08:22:18.030Z,13.28
2023-03-22T08:23:17.799Z,13.37
2023-03-22T08:24:17.733Z,13.42
2023-03-22T08:25:17.726Z,13.52
2023-03-22T08:26:17.757Z,13.62
2023-03-22T08:27:17.703Z,13.68
2023-03-22T08:28:17.699Z,13.72
2023-03-22T08:29:17.676Z,13.77
2023-03-22T08:30:17.646Z,13.83
2023-03-22T08:31:17.742Z,13.92
2023-03-22T08:32:17.666Z,14.03
2023-03-22T08:33:17.619Z,14.08
2023-03-22T08:34:17.606Z,14.18
2023-03-22T08:35:17.603Z,14.23
2023-03-22T08:36:17.710Z,14.30
2023-03-22T08:37:17.556Z,14.35
2023-03-22T08:38:17.558Z,14.41
2023-03-22T08:39:17.560Z,14.47
2023-03-22T08:40:17.528Z,14.48
2023-03-22T08:41:17.493Z,14.53
2023-03-22T08:42:17.498Z,14.59
2023-03-22T08:43:17.483Z,14.66
2023-03-22T08:44:17.473Z,14.78
2023-03-22T08:45:17.475Z,14.85
2023-03-22T08:46:17.506Z,14.92
2023-03-22T08:47:17.417Z,15.02
2023-03-22T08:48:17.473Z,15.07
2023-03-22T08:49:17.416Z,15.15
2023-03-22T08:50:17.382Z,15.25
2023-03-22T08:51:18.919Z,15.35
2023-03-22T08:52:17.385Z,15.43
2023-03-22T08:53:17.333Z,15.55
2023-03-22T08:54:17.355Z,15.62
2023-03-22T08:55:17.368Z,15.73
2023-03-22T08:56:17.333Z,15.80
2023-03-22T08:57:17.296Z,15.90
2023-03-22T08:58:17.279Z,15.98
2023-03-22T08:59:17.245Z,16.08
2023-03-22T09:00:17.327Z,16.16
2023-03-22T09:01:17.302Z,16.29
2023-03-22T09:02:17.302Z,16.38
2023-03-22T09:03:17.252Z,16.43
2023-03-22T09:04:17.288Z,16.49
2023-03-22T09:05:17.175Z,16.53
2023-03-22T09:06:17.167Z,16.58
2023-03-22T09:07:17.177Z,16.58
2023-03-22T09:08:19.412Z,16.61
2023-03-22T09:09:17.117Z,16.66
2023-03-22T09:10:17.138Z,16.72
2023-03-22T09:11:18.077Z,16.78
2023-03-22T09:12:17.097Z,16.84
2023-03-22T09:13:17.093Z,16.90
2023-03-22T09:14:17.062Z,16.96
2023-03-22T09:15:17.093Z,16.99
2023-03-22T09:16:17.228Z,17.02
2023-03-22T09:17:17.000Z,17.08
2023-03-22T09:18:17.004Z,17.15
2023-03-22T09:19:17.039Z,17.19
2023-03-22T09:20:16.972Z,17.22
2023-03-22T09:21:16.977Z,17.30
2023-03-22T09:22:16.940Z,17.39
2023-03-22T09:23:16.937Z,17.51
2023-03-22T09:24:16.954Z,17.60
2023-03-22T09:25:16.908Z,17.68
2023-03-22T09:26:16.919Z,17.70
2023-03-22T09:27:16.895Z,17.76
2023-03-22T09:28:16.893Z,17.85
2023-03-22T09:29:16.844Z,17.92
2023-03-22T09:30:16.829Z,18.01
2023-03-22T09:31:19.783Z,18.11
2023-03-22T09:32:16.802Z,18.16
2023-03-22T09:33:16.813Z,18.25
2023-03-22T09:34:16.786Z,18.38
2023-03-22T09:35:16.816Z,18.45
2023-03-22T09:36:16.783Z,18.55
2023-03-22T09:37:16.735Z,18.59
2023-03-22T09:38:16.722Z,18.66
2023-03-22T09:39:16.706Z,18.70
2023-03-22T09:40:16.741Z,18.75
2023-03-22T09:41:16.683Z,18.75
2023-03-22T09:42:16.689Z,18.84
2023-03-22T09:43:16.698Z,18.93
2023-03-22T09:44:16.640Z,19.02
2023-03-22T09:45:16.622Z,19.08
2023-03-22T09:46:16.728Z,19.14
2023-03-22T09:47:16.588Z,19.21
2023-03-22T09:48:16.720Z,19.30
2023-03-22T09:49:16.566Z,19.34
2023-03-22T09:50:16.558Z,19.39
2023-03-22T09:51:16.553Z,19.51
2023-03-22T09:52:16.535Z,19.58
2023-03-22T09:53:16.605Z,19.64
2023-03-22T09:54:16.498Z,19.70
2023-03-22T09:55:16.493Z,19.66
2023-03-22T09:56:16.473Z,19.70
2023-03-22T09:57:16.478Z,19.81
2023-03-22T09:58:16.504Z,19.86
2023-03-22T09:59:16.487Z,19.94
2023-03-22T10:00:16.520Z,19.95
2023-03-22T10:01:18.482Z,19.96
2023-03-22T10:02:16.471Z,19.99
2023-03-22T10:03:16.376Z,20.07
2023-03-22T10:04:16.636Z,20.19
2023-03-22T10:05:16.349Z,20.29
2023-03-22T10:06:16.344Z,20.29
2023-03-22T10:07:16.332Z,20.36
2023-03-22T10:08:16.413Z,20.43
2023-03-22T10:09:16.319Z,20.56
2023-03-22T10:10:16.288Z,20.66
2023-03-22T10:11:16.316Z,20.78
2023-03-22T10:12:16.282Z,20.88
2023-03-22T10:13:16.278Z,20.97
2023-03-22T10:14:16.239Z,21.12
2023-03-22T10:15:16.236Z,21.25
2023-03-22T10:16:16.268Z,21.37
2023-03-22T10:17:16.219Z,21.54
2023-03-22T10:18:16.210Z,21.62
2023-03-22T10:19:16.202Z,21.61
2023-03-22T10:20:16.148Z,21.67
2023-03-22T10:21:16.199Z,21.77
2023-03-22T10:22:16.128Z,21.88
2023-03-22T10:23:16.154Z,21.95
2023-03-22T10:24:16.092Z,22.07
2023-03-22T10:25:16.086Z,22.08
2023-03-22T10:26:16.071Z,22.08
2023-03-22T10:27:16.063Z,22.11
2023-03-22T10:28:16.067Z,22.17
2023-03-22T10:29:16.061Z,22.20
2023-03-22T10:30:16.025Z,22.25
2023-03-22T10:31:16.075Z,22.14
2023-03-22T10:32:15.998Z,22.13
2023-03-22T10:33:16.009Z,22.20
2023-03-22T10:34:15.978Z,22.32
2023-03-22T10:35:15.940Z,22.41
2023-03-22T10:36:15.935Z,22.53
2023-03-22T10:37:15.927Z,22.62
2023-03-22T10:38:15.930Z,22.75
2023-03-22T10:39:15.907Z,22.87
2023-03-22T10:40:15.904Z,23.00
2023-03-22T10:41:15.872Z,23.06
2023-03-22T10:42:15.846Z,23.13
2023-03-22T10:43:15.879Z,23.17
2023-03-22T10:44:15.825Z,23.27
2023-03-22T10:45:15.861Z,23.31
2023-03-22T10:46:15.833Z,23.36
2023-03-22T10:47:15.788Z,23.31
2023-03-22T10:48:19.070Z,23.37
2023-03-22T10:49:15.781Z,23.46
2023-03-22T10:50:15.751Z,23.56
2023-03-22T10:51:15.764Z,23.71
2023-03-22T10:52:15.786Z,23.77
2023-03-22T10:53:15.755Z,23.80
2023-03-22T10:54:15.699Z,23.78
2023-03-22T10:55:15.688Z,23.86
2023-03-22T10:56:15.742Z,23.88
2023-03-22T10:57:15.665Z,23.88
2023-03-22T10:58:15.799Z,23.87
2023-03-22T10:59:15.696Z,23.91
2023-03-22T11:00:15.637Z,23.88
2023-03-22T11:01:15.777Z,23.95
2023-03-22T11:02:15.747Z,23.99
2023-03-22T11:03:15.571Z,23.95
2023-03-22T11:04:15.646Z,24.02
2023-03-22T11:05:15.625Z,24.14
2023-03-22T11:07:42.726Z,24.24
2023-03-22T11:07:47.606Z,24.30
2023-03-22T11:08:47.603Z,24.35
2023-03-22T11:09:47.616Z,24.36
2023-03-22T11:10:47.597Z,24.42
2023-03-22T11:11:47.582Z,24.53
2023-03-22T11:12:47.607Z,24.57
2023-03-22T11:13:47.521Z,24.61
2023-03-22T11:14:47.514Z,24.69
2023-03-22T11:15:47.546Z,24.73
2023-03-22T11:16:47.584Z,24.70
2023-03-22T11:17:47.477Z,24.68
2023-03-22T11:18:47.481Z,24.74
2023-03-22T11:19:47.444Z,24.91
2023-03-22T11:20:47.569Z,24.98
2023-03-22T11:21:47.429Z,25.07
2023-03-22T11:22:47.414Z,25.29
2023-03-22T11:23:47.422Z,25.44
2023-03-22T11:24:47.373Z,25.51
2023-03-22T11:25:47.392Z,25.44
2023-03-22T11:26:47.376Z,25.53
2023-03-22T11:27:47.347Z,25.54
2023-03-22T11:28:47.341Z,25.48
2023-03-22T11:29:47.306Z,25.46
2023-03-22T11:30:47.302Z,25.43
2023-03-22T11:31:47.436Z,25.44
2023-03-22T11:32:47.452Z,25.53
2023-03-22T11:33:47.265Z,25.63
2023-03-22T11:34:47.253Z,25.59
2023-03-22T11:35:47.368Z,25.43
2023-03-22T11:37:47.276Z,25.54
2023-03-22T11:38:48.271Z,25.75
2023-03-22T11:39:47.203Z,25.66
2023-03-22T11:40:47.177Z,25.63
2023-03-22T11:41:47.175Z,25.72
2023-03-22T11:42:47.166Z,25.87
2023-03-22T11:43:47.158Z,25.93
2023-03-22T11:44:47.153Z,25.83
2023-03-22T11:45:47.140Z,25.81
2023-03-22T11:46:47.099Z,25.90
2023-03-22T11:47:47.229Z,25.87
2023-03-22T11:48:47.244Z,25.96
2023-03-22T11:49:47.150Z,26.06
2023-03-22T11:50:47.049Z,26.02
2023-03-22T11:51:47.048Z,26.10
2023-03-22T11:52:47.016Z,26.16
2023-03-22T11:53:47.057Z,26.21
2023-03-22T11:54:47.003Z,26.23
2023-03-22T11:55:46.996Z,26.28
2023-03-22T11:56:46.967Z,26.38
2023-03-22T11:57:46.958Z,26.38
2023-03-22T11:58:46.991Z,26.25
2023-03-22T11:59:46.934Z,26.16
2023-03-22T12:00:47.000Z,26.09
2023-03-22T12:01:46.896Z,25.99
2023-03-22T12:02:46.983Z,26.10
2023-03-22T12:03:47.035Z,26.13
2023-03-22T12:04:46.966Z,26.05
2023-03-22T12:05:46.901Z,26.09
2023-03-22T12:06:46.850Z,26.25
2023-03-22T12:07:46.843Z,26.31
2023-03-22T12:08:47.411Z,26.37
2023-03-22T12:09:46.814Z,26.40
2023-03-22T12:10:46.805Z,26.53
2023-03-22T12:11:46.780Z,26.68
2023-03-22T12:12:46.756Z,26.77
2023-03-22T12:13:46.741Z,26.83
2023-03-22T12:14:46.762Z,26.78
2023-03-22T12:15:47.047Z,26.58
2023-03-22T12:16:46.771Z,26.44
2023-03-22T12:17:46.713Z,26.44
2023-03-22T12:18:46.691Z,26.38
2023-03-22T12:19:46.679Z,26.33
2023-03-22T12:20:46.711Z,26.34
2023-03-22T12:21:46.639Z,26.31
2023-03-22T12:22:46.660Z,26.37
2023-03-22T12:23:46.618Z,26.31
2023-03-22T12:24:46.607Z,26.16
2023-03-22T12:25:46.594Z,26.15
2023-03-22T12:26:46.573Z,26.09
2023-03-22T12:27:46.586Z,26.15
2023-03-22T12:28:46.608Z,26.15
2023-03-22T12:29:46.538Z,26.16
2023-03-22T12:30:46.518Z,26.06
2023-03-22T12:31:46.620Z,25.98
2023-03-22T12:32:46.559Z,26.05
2023-03-22T12:33:46.531Z,26.13
2023-03-22T12:34:46.564Z,26.07
2023-03-22T12:35:46.564Z,26.02
2023-03-22T12:36:46.486Z,26.05
2023-03-22T12:37:46.451Z,26.03
2023-03-22T12:38:46.448Z,25.84
2023-03-22T12:39:46.412Z,25.78
2023-03-22T12:40:46.388Z,25.73
2023-03-22T12:41:46.417Z,25.77
2023-03-22T12:42:51.146Z,25.80
2023-03-22T12:43:46.400Z,25.83
2023-03-22T12:44:55.561Z,25.87
2023-03-22T12:45:46.350Z,25.88
2023-03-22T12:46:46.346Z,25.88
2023-03-22T12:47:46.414Z,25.81
2023-03-22T12:48:46.697Z,25.69
2023-03-22T12:49:46.279Z,25.68
2023-03-22T12:50:46.294Z,25.81
2023-03-22T12:51:46.246Z,25.91
2023-03-22T12:52:46.308Z,25.98
2023-03-22T12:53:46.222Z,26.09
2023-03-22T12:54:46.206Z,26.09
2023-03-22T12:55:46.239Z,26.16
2023-03-22T12:56:46.228Z,26.26
2023-03-22T12:57:46.199Z,26.22
2023-03-22T12:58:46.162Z,26.18
2023-03-22T12:59:46.156Z,26.21
2023-03-22T13:00:46.177Z,26.33
2023-03-22T13:01:46.133Z,26.31
2023-03-22T13:02:46.226Z,26.25
2023-03-22T13:03:46.206Z,26.15
2023-03-22T13:04:46.089Z,25.90
2023-03-22T13:05:46.085Z,25.95
2023-03-22T13:06:46.088Z,25.99